Time;durP1;ratioP1;P1;durP2;ratioP2;P2;SDS_P1;SDS_P2;PMS_P1;PMS_P2;Temp;Humidity;BMP_temperature;BMP_pressure;BME280_temperature;BME280_humidity;BME280_pressure;Samples;Min_cycle;Max_cycle;Signal;HPM_P1;HPM_P2
2021/04/28 00:01:58;;;;;;;37.70;31.40;;;;;;;13.00;83.06;99800.88;5061545;28;20045;-74
2021/04/28 00:04:25;;;;;;;37.88;33.95;;;;;;;12.98;83.49;99804.53;5065404;28;20498;-72
2021/04/28 00:06:51;;;;;;;39.42;35.35;;;;;;;13.01;83.16;99799.94;5061841;28;20126;-72
2021/04/28 00:09:20;;;;;;;47.00;34.28;;;;;;;13.01;83.36;99796.47;5061921;28;20055;-72
2021/04/28 00:11:47;;;;;;;41.42;36.95;;;;;;;12.96;83.81;99794.16;5061962;28;20075;-72
2021/04/28 00:14:14;;;;;;;39.03;35.03;;;;;;;12.94;83.80;99792.56;5064462;28;20127;-72
2021/04/28 00:16:40;;;;;;;40.47;36.38;;;;;;;13.00;83.11;99793.03;5064311;28;20126;-72
2021/04/28 00:19:07;;;;;;;40.40;36.00;;;;;;;12.93;83.57;99789.13;5062642;28;20466;-72
2021/04/28 00:21:33;;;;;;;35.55;32.03;;;;;;;12.94;83.16;99796.03;5063553;28;20326;-72
2021/04/28 00:24:00;;;;;;;39.55;35.53;;;;;;;12.90;83.30;99794.59;5065041;28;22191;-71
2021/04/28 00:26:27;;;;;;;37.95;33.58;;;;;;;13.01;82.87;99788.63;5064904;28;20114;-71
2021/04/28 00:28:53;;;;;;;37.17;33.25;;;;;;;13.04;82.16;99788.41;5061547;28;20045;-71
2021/04/28 00:31:20;;;;;;;38.03;34.20;;;;;;;12.93;82.86;99790.91;5063576;28;20503;-72
2021/04/28 00:33:47;;;;;;;41.67;37.25;;;;;;;12.96;82.80;99794.16;5060903;28;20120;-71
2021/04/28 00:36:14;;;;;;;39.10;34.97;;;;;;;12.88;83.87;99782.53;5062664;28;20045;-71
2021/04/28 00:38:40;;;;;;;39.72;35.08;;;;;;;12.89;83.60;99778.97;5066011;28;20600;-71
2021/04/28 00:41:09;;;;;;;39.30;35.40;;;;;;;12.90;83.45;99785.91;5063353;28;20094;-71
2021/04/28 00:43:37;;;;;;;40.05;35.85;;;;;;;12.95;83.00;99783.81;5062588;28;20060;-71
2021/04/28 00:46:05;;;;;;;40.38;36.05;;;;;;;12.91;83.23;99780.56;5065915;28;21033;-72
2021/04/28 00:48:33;;;;;;;37.65;33.65;;;;;;;13.03;82.68;99778.88;5060366;28;20098;-72
2021/04/28 00:50:59;;;;;;;39.35;35.00;;;;;;;13.13;81.60;99776.50;5060624;28;20036;-72
2021/04/28 00:53:27;;;;;;;42.28;37.78;;;;;;;12.91;82.87;99777.94;5059091;28;20087;-72
2021/04/28 00:55:55;;;;;;;41.80;35.75;;;;;;;13.04;82.28;99778.78;5060104;28;20166;-72
2021/04/28 00:58:23;;;;;;;43.42;38.15;;;;;;;13.08;82.03;99776.81;5062597;28;20063;-71
2021/04/28 01:00:51;;;;;;;40.42;36.05;;;;;;;12.99;82.18;99775.63;5063974;28;20033;-72
2021/04/28 01:03:26;;;;;;;39.33;35.50;;;;;;;12.96;82.39;99770.63;5063148;28;20372;-73
2021/04/28 01:05:59;;;;;;;39.15;34.75;;;;;;;12.89;82.72;99769.38;5063334;28;20078;-72
2021/04/28 01:08:26;;;;;;;41.58;37.25;;;;;;;12.92;82.69;99771.75;5056628;28;20064;-73
2021/04/28 01:10:54;;;;;;;41.10;36.67;;;;;;;13.02;81.76;99767.59;5059400;28;20037;-73
2021/04/28 01:13:22;;;;;;;40.10;35.80;;;;;;;13.04;82.02;99757.84;5061571;28;20107;-73
2021/04/28 01:15:51;;;;;;;37.00;33.25;;;;;;;12.98;81.99;99763.50;5065093;28;20043;-73
2021/04/28 01:18:19;;;;;;;39.75;35.25;;;;;;;12.83;82.88;99762.75;5058856;28;20604;-73
2021/04/28 01:20:47;;;;;;;38.33;32.47;;;;;;;12.65;84.01;99757.91;5064242;28;20060;-73
2021/04/28 01:23:18;;;;;;;36.17;32.40;;;;;;;12.71;84.31;99753.09;5061859;28;20045;-73
2021/04/28 01:25:50;;;;;;;37.15;33.08;;;;;;;12.79;83.37;99752.63;5061718;28;20588;-73
2021/04/28 01:28:22;;;;;;;36.83;33.00;;;;;;;12.78;83.08;99751.78;5063095;28;20028;-73
2021/04/28 01:30:52;;;;;;;37.03;33.25;;;;;;;12.80;82.81;99749.88;5063278;28;20040;-73
2021/04/28 01:33:31;;;;;;;36.30;32.50;;;;;;;12.92;82.46;99757.84;5063062;28;20594;-73
2021/04/28 01:35:58;;;;;;;38.80;34.65;;;;;;;12.95;82.31;99753.25;5061631;28;20056;-73
2021/04/28 01:38:28;;;;;;;35.55;31.95;;;;;;;12.95;81.98;99742.78;5061826;28;20037;-73
2021/04/28 01:40:55;;;;;;;35.17;31.48;;;;;;;12.82;83.02;99745.38;5060311;28;20138;-73
2021/04/28 01:43:23;;;;;;;35.75;31.95;;;;;;;12.87;82.82;99744.25;5060347;28;20071;-73
2021/04/28 01:45:52;;;;;;;36.85;32.88;;;;;;;12.85;82.38;99744.34;5062680;28;20045;-73
2021/04/28 01:48:20;;;;;;;35.55;31.90;;;;;;;12.82;82.56;99740.16;5062583;28;20041;-73
2021/04/28 01:50:49;;;;;;;35.92;31.77;;;;;;;12.76;82.96;99742.34;5059093;28;20499;-73
2021/04/28 01:53:18;;;;;;;34.03;30.52;;;;;;;12.85;82.94;99734.72;5063866;28;20037;-73
2021/04/28 01:55:45;;;;;;;33.75;30.40;;;;;;;12.77;82.97;99738.78;5067103;28;20067;-73
2021/04/28 01:58:31;;;;;;;35.65;31.80;;;;;;;12.68;84.08;99740.25;5060395;28;20174;-73
2021/04/28 02:01:02;;;;;;;45.55;32.80;;;;;;;12.74;83.67;99733.78;5064996;28;20051;-73
2021/04/28 02:03:29;;;;;;;33.10;29.75;;;;;;;12.64;83.74;99733.53;5062014;28;20102;-73
2021/04/28 02:05:58;;;;;;;44.03;32.17;;;;;;;12.54;84.36;99733.31;5062609;28;20120;-73
2021/04/28 02:08:25;;;;;;;35.60;31.92;;;;;;;12.59;84.87;99725.16;5061557;28;20127;-72
2021/04/28 02:10:52;;;;;;;37.13;33.03;;;;;;;12.68;84.06;99734.19;5062076;28;20392;-72
2021/04/28 02:13:22;;;;;;;36.08;30.75;;;;;;;12.47;84.74;99732.06;5060672;28;20060;-72
2021/04/28 02:15:52;;;;;;;34.80;30.00;;;;;;;12.44;85.68;99729.63;5058119;28;20123;-72
2021/04/28 02:18:20;;;;;;;34.80;31.33;;;;;;;12.50;84.48;99724.00;5061432;28;20452;-71
2021/04/28 02:20:51;;;;;;;29.98;26.67;;;;;;;12.50;84.82;99721.38;5061154;28;20047;-71
2021/04/28 02:23:46;;;;;;;36.10;31.08;;;;;;;12.54;84.40;99724.63;5058892;28;20048;-71
2021/04/28 02:26:19;;;;;;;34.67;31.02;;;;;;;12.54;84.04;99722.84;5059952;28;20569;-71
2021/04/28 02:28:45;;;;;;;42.55;33.78;;;;;;;12.55;84.06;99719.28;5065945;28;20056;-71
2021/04/28 02:31:12;;;;;;;35.95;32.17;;;;;;;12.51;84.51;99725.66;5062186;28;20033;-71
2021/04/28 02:33:42;;;;;;;37.97;31.98;;;;;;;12.69;83.71;99715.78;5053637;28;20123;-70
2021/04/28 02:36:28;;;;;;;36.92;32.90;;;;;;;12.61;83.87;99717.22;5056745;28;20056;-70
2021/04/28 02:39:26;;;;;;;38.72;33.90;;;;;;;12.68;83.60;99714.09;5041896;28;20044;-71
2021/04/28 02:41:54;;;;;;;38.13;33.10;;;;;;;12.78;83.11;99701.22;5080023;28;20114;-72
2021/04/28 02:44:25;;;;;;;36.65;33.00;;;;;;;12.80;82.98;99704.59;5058954;28;20040;-71
2021/04/28 02:46:54;;;;;;;39.95;35.80;;;;;;;12.73;83.24;99708.53;5064154;28;20045;-72
2021/04/28 02:49:23;;;;;;;36.53;32.67;;;;;;;12.74;83.36;99697.16;5068653;28;20101;-72
2021/04/28 02:52:01;;;;;;;36.25;31.15;;;;;;;12.69;83.67;99704.47;5068756;28;20503;-72
2021/04/28 02:54:45;;;;;;;39.70;31.50;;;;;;;12.68;83.77;99698.41;5067971;28;20482;-71
2021/04/28 02:57:16;;;;;;;36.92;33.13;;;;;;;12.66;83.82;99699.44;5067134;28;20132;-72
2021/04/28 02:59:43;;;;;;;40.17;36.17;;;;;;;12.65;84.02;99690.75;5065962;28;20059;-72
2021/04/28 03:02:12;;;;;;;39.42;35.35;;;;;;;12.76;83.28;99692.66;5064496;28;20044;-72
2021/04/28 03:04:40;;;;;;;36.80;32.97;;;;;;;12.80;82.81;99700.19;5078643;28;20095;-72
2021/04/28 03:07:42;;;;;;;37.42;33.45;;;;;;;12.74;83.34;99707.63;5007067;28;20042;-72
2021/04/28 03:10:10;;;;;;;36.28;32.53;;;;;;;12.84;83.19;99703.44;5051595;28;20037;-72
2021/04/28 03:12:38;;;;;;;37.75;33.67;;;;;;;12.94;82.38;99704.47;5058482;28;20506;-72
2021/04/28 03:15:08;;;;;;;35.83;31.95;;;;;;;12.96;81.88;99707.84;5066250;28;20098;-72
2021/04/28 03:17:36;;;;;;;38.70;34.53;;;;;;;12.92;82.13;99708.97;5064744;28;20045;-73
2021/04/28 03:20:08;;;;;;;39.53;35.28;;;;;;;12.83;82.69;99709.59;5066207;28;20059;-73
2021/04/28 03:22:42;;;;;;;39.83;35.67;;;;;;;12.84;82.96;99719.97;5062784;28;20041;-74
2021/04/28 03:25:11;;;;;;;41.05;36.05;;;;;;;12.83;83.21;99718.28;5083112;28;20036;-73
2021/04/28 03:27:39;;;;;;;43.00;37.63;;;;;;;12.80;83.44;99722.91;5062676;28;20042;-73
2021/04/28 03:30:07;;;;;;;39.85;35.55;;;;;;;12.79;83.67;99722.06;5066784;28;20037;-72
2021/04/28 03:32:34;;;;;;;42.55;38.00;;;;;;;12.76;83.96;99726.66;5065755;28;20094;-73
2021/04/28 03:35:23;;;;;;;49.10;37.15;;;;;;;12.68;84.76;99724.56;5066945;28;20048;-73
2021/04/28 03:38:10;;;;;;;37.40;33.22;;;;;;;12.66;84.74;99721.19;5067367;28;20134;-71
2021/04/28 03:40:37;;;;;;;37.00;33.13;;;;;;;12.70;84.43;99727.06;5062094;28;20041;-73
2021/04/28 03:43:04;;;;;;;40.42;36.20;;;;;;;12.61;84.75;99720.66;5066769;28;20407;-74
2021/04/28 03:45:32;;;;;;;36.88;32.70;;;;;;;12.54;85.04;99720.25;5062125;28;20048;-73
2021/04/28 03:48:00;;;;;;;35.53;31.75;;;;;;;12.48;85.29;99730.28;5066890;28;20044;-71
2021/04/28 03:50:27;;;;;;;42.53;28.08;;;;;;;12.44;85.28;99727.00;5056349;28;20414;-71
2021/04/28 03:53:07;;;;;;;33.97;30.13;;;;;;;12.41;85.13;99728.97;5065562;28;20044;-73
2021/04/28 03:55:40;;;;;;;31.63;28.38;;;;;;;12.36;85.73;99734.53;5063998;28;20510;-73
2021/04/28 03:58:06;;;;;;;31.05;27.67;;;;;;;12.33;85.82;99735.56;5063558;28;20043;-70
2021/04/28 04:00:34;;;;;;;32.47;28.98;;;;;;;12.43;85.62;99725.34;5061739;28;20051;-71
2021/04/28 04:03:26;;;;;;;33.40;29.88;;;;;;;12.33;86.22;99729.50;5062373;28;20049;-73
2021/04/28 04:06:18;;;;;;;32.17;28.85;;;;;;;12.45;85.69;99733.06;5057161;28;20041;-72
2021/04/28 04:09:17;;;;;;;33.53;30.13;;;;;;;12.46;85.69;99725.13;5034820;28;20342;-72
2021/04/28 04:11:45;;;;;;;31.58;28.42;;;;;;;12.47;84.95;99732.06;5062026;28;20052;-73
2021/04/28 04:14:20;;;;;;;31.40;28.30;;;;;;;12.47;85.72;99732.06;5067566;28;20544;-74
2021/04/28 04:16:50;;;;;;;30.33;27.17;;;;;;;12.47;85.53;99729.44;5069851;28;20051;-73
2021/04/28 04:19:18;;;;;;;28.92;26.00;;;;;;;12.53;84.84;99736.03;5070890;28;20498;-73
2021/04/28 04:22:03;;;;;;;28.63;25.77;;;;;;;12.54;84.63;99733.31;5068650;28;20037;-74
2021/04/28 04:25:04;;;;;;;31.45;28.15;;;;;;;12.59;84.34;99727.78;5048822;28;20131;-73
2021/04/28 04:27:32;;;;;;;29.73;26.73;;;;;;;12.60;84.40;99745.13;5072541;28;20403;-71
2021/04/28 04:30:10;;;;;;;29.13;25.63;;;;;;;12.68;83.71;99735.03;5071953;28;20045;-71
2021/04/28 04:32:56;;;;;;;37.58;27.25;;;;;;;12.54;83.94;99738.53;5072221;28;20121;-73
2021/04/28 04:35:40;;;;;;;;;;;;;;;12.54;84.26;99741.16;5072825;28;20097;-73
2021/04/28 04:38:25;;;;;;;32.95;27.05;;;;;;;12.54;84.24;99742.94;5070880;28;20036;-74
2021/04/28 04:40:57;;;;;;;30.52;27.25;;;;;;;12.49;84.28;99748.47;5072921;28;20441;-73
2021/04/28 04:43:39;;;;;;;28.30;25.08;;;;;;;12.49;84.55;99745.84;5061225;28;20041;-74
2021/04/28 04:46:14;;;;;;;27.55;24.52;;;;;;;12.51;84.85;99751.81;5071276;28;20498;-74
2021/04/28 04:48:41;;;;;;;29.05;25.30;;;;;;;12.42;84.97;99760.28;5071859;28;20036;-72
2021/04/28 04:51:07;;;;;;;32.35;27.25;;;;;;;12.42;85.25;99759.44;5071316;28;20036;-74
2021/04/28 04:53:34;;;;;;;29.30;26.30;;;;;;;12.35;85.65;99758.13;5072775;28;20056;-72
2021/04/28 04:56:00;;;;;;;47.80;28.45;;;;;;;12.32;85.90;99760.03;5073179;28;20532;-72
2021/04/28 04:58:27;;;;;;;31.25;26.80;;;;;;;12.30;86.66;99758.44;5072804;28;20140;-73
2021/04/28 05:00:53;;;;;;;31.95;26.60;;;;;;;12.35;86.54;99761.59;5073394;28;20119;-73
2021/04/28 05:03:20;;;;;;;28.67;25.73;;;;;;;12.37;86.66;99762.34;5070349;28;20037;-73
2021/04/28 05:05:46;;;;;;;28.13;25.05;;;;;;;12.49;85.92;99756.31;5071886;28;20047;-74
2021/04/28 05:08:12;;;;;;;29.05;24.90;;;;;;;12.54;85.24;99750.78;5070208;28;20449;-74
2021/04/28 05:10:41;;;;;;;28.83;25.83;;;;;;;12.44;85.76;99752.31;5071591;28;20056;-72
2021/04/28 05:13:08;;;;;;;29.05;26.00;;;;;;;12.46;86.07;99755.66;5074919;28;20135;-71
2021/04/28 05:15:35;;;;;;;27.13;23.85;;;;;;;12.54;85.64;99754.22;5071486;28;20379;-73
2021/04/28 05:18:01;;;;;;;26.80;23.50;;;;;;;12.57;84.71;99759.28;5073084;28;20068;-72
2021/04/28 05:20:28;;;;;;;24.35;21.80;;;;;;;12.62;84.12;99765.94;5071520;28;20059;-69
2021/04/28 05:22:55;;;;;;;25.20;22.48;;;;;;;12.53;84.80;99768.25;5069773;28;20040;-72
2021/04/28 05:25:30;;;;;;;26.13;22.15;;;;;;;12.59;84.77;99759.16;5069840;28;20041;-75
2021/04/28 05:27:57;;;;;;;27.33;24.48;;;;;;;12.63;85.14;99768.50;5072027;28;20032;-75
2021/04/28 05:30:25;;;;;;;23.45;20.50;;;;;;;12.53;84.99;99765.63;5070904;28;20502;-76
2021/04/28 05:32:52;;;;;;;28.83;21.33;;;;;;;12.66;84.51;99772.66;5071144;28;20454;-75
2021/04/28 05:35:18;;;;;;;25.17;22.42;;;;;;;12.70;84.14;99768.91;5067547;28;20483;-77
2021/04/28 05:37:45;;;;;;;28.13;23.75;;;;;;;12.70;83.75;99774.13;5073084;28;20098;-75
2021/04/28 05:40:12;;;;;;;24.20;21.75;;;;;;;12.68;nan;99770.81;5070310;28;20064;-74
2021/04/28 05:42:39;;;;;;;22.33;20.02;;;;;;;12.76;83.24;99764.09;5068967;28;20518;-76
2021/04/28 05:45:07;;;;;;;28.83;22.23;;;;;;;12.75;82.98;99769.44;5070008;28;20037;-77
2021/04/28 05:47:35;;;;;;;29.30;22.83;;;;;;;12.82;82.80;99773.31;5069631;28;20036;-76
2021/04/28 05:50:03;;;;;;;28.83;25.77;;;;;;;12.67;83.34;99767.31;5071287;28;20041;-77
2021/04/28 05:52:29;;;;;;;26.98;23.95;;;;;;;12.73;83.34;99771.31;5069692;28;20097;-70
2021/04/28 05:54:55;;;;;;;25.25;22.67;;;;;;;12.81;82.86;99761.19;5062957;28;20090;-72
2021/04/28 05:57:32;;;;;;;34.00;23.55;;;;;;;12.94;82.34;99764.63;5064146;28;20045;-69
2021/04/28 06:00:10;;;;;;;31.17;23.05;;;;;;;13.00;81.42;99764.25;5070529;28;20356;-71
2021/04/28 06:02:42;;;;;;;25.00;22.38;;;;;;;12.92;81.27;99766.53;5066761;28;20048;-72
2021/04/28 06:05:09;;;;;;;23.17;20.83;;;;;;;12.81;82.10;99756.78;5060790;28;20045;-68
2021/04/28 06:07:36;;;;;;;25.20;22.20;;;;;;;12.75;82.70;99756.38;5066401;28;20040;-70
2021/04/28 06:10:06;;;;;;;27.13;23.85;;;;;;;12.87;82.47;99757.31;5063241;28;20044;-68
2021/04/28 06:12:32;;;;;;;24.77;22.23;;;;;;;12.85;82.15;99760.88;5068643;28;20079;-69
2021/04/28 06:14:59;;;;;;;27.98;22.55;;;;;;;12.72;82.71;99754.78;5065268;28;20122;-70
2021/04/28 06:17:25;;;;;;;26.40;23.58;;;;;;;12.63;nan;99758.03;5069841;28;20089;-68
2021/04/28 06:19:51;;;;;;;27.98;24.73;;;;;;;12.61;84.01;99766.91;5069795;28;20040;-69
2021/04/28 06:22:18;;;;;;;25.73;23.23;;;;;;;12.69;83.33;99756.78;5071787;28;20053;-77
2021/04/28 06:24:45;;;;;;;26.05;23.23;;;;;;;12.71;83.23;99758.34;5070710;28;20071;-73
2021/04/28 06:27:11;;;;;;;25.15;22.45;;;;;;;12.67;83.57;99759.47;5072237;28;20098;-77
2021/04/28 06:29:40;;;;;;;24.92;22.08;;;;;;;12.80;83.23;99756.91;5069226;28;20086;-74
2021/04/28 06:32:09;;;;;;;22.60;20.27;;;;;;;12.90;82.33;99757.97;5071906;28;20045;-77
2021/04/28 06:34:36;;;;;;;23.27;20.70;;;;;;;12.82;82.18;99765.47;5071893;28;20042;-74
2021/04/28 06:37:03;;;;;;;24.17;21.52;;;;;;;12.80;81.35;99764.75;5071871;28;20041;-75
2021/04/28 06:39:29;;;;;;;27.35;19.45;;;;;;;12.84;81.08;99763.59;5071968;28;20096;-69
2021/04/28 06:41:56;;;;;;;37.10;18.85;;;;;;;12.84;80.33;99761.00;5069766;28;20049;-75
2021/04/28 06:44:23;;;;;;;21.05;18.90;;;;;;;13.02;80.25;99764.13;5069303;28;20059;-76
2021/04/28 06:46:50;;;;;;;23.73;20.10;;;;;;;13.05;80.31;99756.94;5068738;28;20114;-75
2021/04/28 06:49:16;;;;;;;23.38;19.10;;;;;;;13.07;79.76;99757.66;5070710;28;20044;-73
2021/04/28 06:51:43;;;;;;;21.17;19.00;;;;;;;13.18;80.32;99754.31;5070249;28;20036;-74
2021/04/28 06:54:09;;;;;;;20.08;17.25;;;;;;;13.14;79.08;99757.22;5069934;28;20530;-74
2021/04/28 06:56:37;;;;;;;19.52;17.60;;;;;;;13.14;79.55;99752.81;5071612;28;20040;-75
2021/04/28 06:59:03;;;;;;;24.27;20.10;;;;;;;13.17;79.14;99762.25;5072066;28;20068;-74
2021/04/28 07:01:30;;;;;;;24.40;20.73;;;;;;;13.33;79.44;99758.50;5071465;28;20270;-73
2021/04/28 07:03:56;;;;;;;24.50;21.45;;;;;;;13.24;79.31;99753.91;5071335;28;20502;-76
2021/04/28 07:06:23;;;;;;;25.75;20.67;;;;;;;13.25;78.98;99759.97;5069320;28;20044;-72
2021/04/28 07:08:49;;;;;;;24.38;20.38;;;;;;;13.38;78.30;99762.59;5071442;28;20068;-73
2021/04/28 07:11:16;;;;;;;23.08;19.35;;;;;;;13.41;77.43;99757.97;5067467;28;20074;-71
2021/04/28 07:13:42;;;;;;;21.25;19.02;;;;;;;13.45;77.73;99756.81;5065086;28;20120;-72
2021/04/28 07:16:09;;;;;;;23.40;21.00;;;;;;;13.47;77.19;99760.16;5071399;28;20044;-73
2021/04/28 07:18:35;;;;;;;33.83;20.45;;;;;;;13.62;77.21;99759.09;5071276;28;20102;-73
2021/04/28 07:21:04;;;;;;;28.52;21.20;;;;;;;13.34;77.73;99761.97;5071974;28;20048;-73
2021/04/28 07:23:30;;;;;;;23.75;21.45;;;;;;;13.48;77.72;99767.09;5070847;28;20566;-73
2021/04/28 07:25:56;;;;;;;24.40;21.85;;;;;;;13.55;77.85;99767.50;5070269;28;20040;-73
2021/04/28 07:28:23;;;;;;;27.77;22.80;;;;;;;13.67;77.11;99771.03;5071430;28;20127;-73
2021/04/28 07:30:49;;;;;;;29.05;21.95;;;;;;;13.74;76.29;99767.03;5071156;28;20124;-72
2021/04/28 07:33:16;;;;;;;25.17;22.48;;;;;;;13.87;76.21;99767.84;5073081;28;20129;-73
2021/04/28 07:35:42;;;;;;;25.38;22.77;;;;;;;14.00;75.51;99773.88;5074468;28;20564;-68
2021/04/28 07:38:09;;;;;;;29.10;23.98;;;;;;;14.22;74.51;99761.84;5075136;28;20064;-69
2021/04/28 07:40:35;;;;;;;29.92;26.85;;;;;;;14.32;73.76;99765.47;5074460;28;20053;-71
2021/04/28 07:43:02;;;;;;;33.22;28.15;;;;;;;14.67;72.95;99763.75;5075396;28;20373;-70
2021/04/28 07:45:29;;;;;;;28.00;25.20;;;;;;;14.66;71.12;99764.69;5074224;28;20044;-70
2021/04/28 07:47:57;;;;;;;29.92;23.23;;;;;;;14.60;73.02;99767.78;5066134;28;20398;-70
2021/04/28 07:50:24;;;;;;;29.00;23.40;;;;;;;14.79;71.44;99769.84;5060505;28;20412;-73
2021/04/28 07:52:51;;;;;;;31.65;25.58;;;;;;;14.91;71.19;99773.34;5061179;28;20126;-73
2021/04/28 07:55:17;;;;;;;31.05;27.70;;;;;;;15.16;69.31;99774.94;5062113;28;20545;-71
2021/04/28 07:57:44;;;;;;;30.27;24.00;;;;;;;15.02;70.67;99768.13;5064993;28;20051;-70
2021/04/28 08:00:12;;;;;;;29.15;26.13;;;;;;;15.14;69.96;99766.38;5063888;28;20139;-69
2021/04/28 08:02:38;;;;;;;33.40;28.30;;;;;;;15.08;71.15;99777.34;5062757;28;20052;-69
2021/04/28 08:05:07;;;;;;;38.03;33.38;;;;;;;14.99;70.57;99776.22;5060681;28;20404;-69
2021/04/28 08:07:34;;;;;;;34.22;30.42;;;;;;;15.01;70.04;99771.69;5058672;28;20124;-68
2021/04/28 08:10:02;;;;;;;29.17;26.08;;;;;;;14.98;69.29;99771.94;5061992;28;20090;-68
2021/04/28 08:12:28;;;;;;;44.83;30.77;;;;;;;15.32;68.63;99775.44;5067519;28;20128;-69
2021/04/28 08:14:55;;;;;;;30.15;26.90;;;;;;;15.20;69.54;99771.97;5071016;28;20562;-69
2021/04/28 08:17:21;;;;;;;40.33;33.20;;;;;;;15.56;67.29;99777.13;5060085;28;20048;-67
2021/04/28 08:19:47;;;;;;;36.72;31.63;;;;;;;15.56;68.24;99777.97;5060637;28;20040;-67
2021/04/28 08:22:14;;;;;;;38.10;34.03;;;;;;;15.31;68.86;99779.03;5061516;28;20135;-67
2021/04/28 08:24:40;;;;;;;38.17;34.10;;;;;;;15.35;69.02;99785.72;5062577;28;20365;-69
2021/04/28 08:27:07;;;;;;;36.92;32.97;;;;;;;15.22;68.48;99784.13;5061880;28;20560;-67
2021/04/28 08:29:33;;;;;;;39.05;34.75;;;;;;;15.10;68.88;99786.75;5059944;28;20124;-69
2021/04/28 08:32:00;;;;;;;38.20;34.20;;;;;;;15.04;68.50;99784.59;5061330;28;20040;-70
2021/04/28 08:34:27;;;;;;;38.20;33.60;;;;;;;15.03;69.75;99787.34;5059126;28;20064;-69
2021/04/28 08:36:54;;;;;;;41.60;35.40;;;;;;;15.13;69.53;99785.69;5063480;28;20079;-68
2021/04/28 08:39:20;;;;;;;35.40;28.70;;;;;;;15.15;69.86;99789.88;5059163;28;20124;-68
2021/04/28 08:41:48;;;;;;;33.53;29.08;;;;;;;15.24;69.80;99783.09;5067112;28;20051;-70
2021/04/28 08:44:15;;;;;;;32.70;29.10;;;;;;;14.86;68.94;99775.47;5069956;28;20048;-69
2021/04/28 08:46:42;;;;;;;38.80;32.13;;;;;;;14.89;68.50;99778.72;5064963;28;20041;-69
2021/04/28 08:49:09;;;;;;;34.67;29.23;;;;;;;15.28;69.07;99778.41;5065983;28;20044;-69
2021/04/28 08:51:37;;;;;;;34.47;30.08;;;;;;;15.55;68.15;99781.53;5063560;28;20131;-70
2021/04/28 08:54:07;;;;;;;34.35;30.60;;;;;;;15.52;66.90;99783.56;5063172;28;20064;-69
2021/04/28 08:56:34;;;;;;;33.10;29.67;;;;;;;15.22;67.18;99789.38;5068368;28;20036;-69
2021/04/28 08:59:06;;;;;;;34.67;30.50;;;;;;;15.32;66.64;99785.09;5070955;28;20040;-69
2021/04/28 09:01:35;;;;;;;35.20;31.48;;;;;;;15.63;66.47;99783.59;5070844;28;20136;-68
2021/04/28 09:04:13;;;;;;;36.55;32.85;;;;;;;15.84;64.93;99786.34;5062420;28;20044;-68
2021/04/28 09:06:39;;;;;;;33.60;30.13;;;;;;;15.98;65.39;99783.47;5065425;28;20045;-67
2021/04/28 09:09:07;;;;;;;32.47;29.17;;;;;;;15.83;65.70;99782.88;5061134;28;20047;-71
2021/04/28 09:11:37;;;;;;;36.03;29.42;;;;;;;15.87;64.93;99786.06;5062371;28;20132;-72
2021/04/28 09:14:12;;;;;;;29.02;25.38;;;;;;;16.02;65.01;99781.41;5061913;28;20119;-71
2021/04/28 09:16:39;;;;;;;;;;;;;;;16.07;64.44;99787.13;5062169;28;20042;-70
2021/04/28 09:19:35;;;;;;;31.52;25.65;;;;;;;16.12;64.72;99779.72;5064776;28;21838;-70
2021/04/28 09:22:22;;;;;;;25.63;22.98;;;;;;;16.65;63.83;99777.13;5063187;28;20039;-71
2021/04/28 09:25:42;;;;;;;27.23;24.45;;;;;;;16.63;62.74;99774.63;5023994;28;20508;-71
2021/04/28 09:28:34;;;;;;;24.73;22.25;;;;;;;16.81;61.56;99771.47;5049390;28;20486;-70
2021/04/28 09:31:05;;;;;;;28.83;25.83;;;;;;;16.87;61.40;99776.22;5062632;28;20055;-71
2021/04/28 09:33:56;;;;;;;32.67;26.58;;;;;;;16.88;61.08;99769.97;5061380;28;20049;-72
2021/04/28 09:36:37;;;;;;;32.60;29.27;;;;;;;16.57;61.15;99779.56;5055178;28;20037;-72
2021/04/28 09:39:08;;;;;;;76.55;29.90;;;;;;;16.75;62.02;99772.81;5058735;28;20037;-72
2021/04/28 09:41:46;;;;;;;31.13;27.85;;;;;;;16.82;60.93;99767.88;5057008;28;20041;-71
2021/04/28 09:44:19;;;;;;;25.77;23.00;;;;;;;16.61;61.46;99768.66;5061807;28;20553;-71
2021/04/28 09:46:56;;;;;;;32.33;24.65;;;;;;;16.83;60.54;99764.25;5060707;28;20045;-72
2021/04/28 09:49:25;;;;;;;27.02;24.13;;;;;;;16.77;60.58;99763.81;5059567;28;20491;-71
2021/04/28 09:52:02;;;;;;;27.80;24.55;;;;;;;16.79;61.78;99768.13;5060292;28;20043;-72
2021/04/28 09:54:30;;;;;;;41.22;25.88;;;;;;;17.00;61.49;99766.34;5057875;28;20412;-75
2021/04/28 09:56:58;;;;;;;27.08;23.10;;;;;;;16.94;61.29;99769.50;5060420;28;20117;-73
2021/04/28 09:59:44;;;;;;;25.65;23.13;;;;;;;16.92;61.62;99774.88;5061285;28;20044;-76
2021/04/28 10:02:12;;;;;;;22.52;20.23;;;;;;;17.01;61.79;99758.31;5060117;28;20041;-73
2021/04/28 10:04:39;;;;;;;23.70;20.77;;;;;;;16.89;60.37;99756.72;5063608;28;20036;-77
2021/04/28 10:07:06;;;;;;;28.52;25.75;;;;;;;16.92;60.55;99759.06;5069460;28;20073;-75
2021/04/28 10:09:34;;;;;;;26.27;23.55;;;;;;;17.09;59.00;99764.72;5067900;28;20041;-72
2021/04/28 10:12:06;;;;;;;20.15;18.15;;;;;;;17.03;60.72;99766.06;5061504;28;20051;-72
2021/04/28 10:14:34;;;;;;;22.65;20.45;;;;;;;16.70;61.11;99770.53;5062953;28;20106;-71
2021/04/28 10:17:04;;;;;;;22.35;19.92;;;;;;;16.78;60.28;99767.31;5062108;28;20470;-73
2021/04/28 10:19:33;;;;;;;21.33;19.25;;;;;;;16.87;60.84;99771.78;5059198;28;20679;-71
2021/04/28 10:22:12;;;;;;;23.58;20.98;;;;;;;16.61;59.83;99763.38;5059817;28;20044;-70
2021/04/28 10:24:41;;;;;;;22.83;20.67;;;;;;;16.97;59.66;99756.06;5063325;28;20044;-73
2021/04/28 10:27:10;;;;;;;20.65;18.48;;;;;;;16.98;59.84;99757.72;5061432;28;20079;-71
2021/04/28 10:29:39;;;;;;;21.08;19.02;;;;;;;16.80;59.93;99760.09;5060631;28;20167;-70
2021/04/28 10:32:11;;;;;;;21.85;19.60;;;;;;;16.64;59.52;99760.50;5060802;28;20789;-73
2021/04/28 10:34:52;;;;;;;20.60;17.75;;;;;;;16.66;59.50;99758.56;5063885;28;20048;-71
2021/04/28 10:37:20;;;;;;;20.05;18.15;;;;;;;16.75;59.72;99755.22;5066375;28;20094;-70
2021/04/28 10:39:49;;;;;;;17.67;15.88;;;;;;;16.74;59.82;99758.81;5062058;28;20499;-73
2021/04/28 10:42:36;;;;;;;17.23;15.57;;;;;;;16.74;59.56;99755.34;5063786;28;20075;-74
2021/04/28 10:45:08;;;;;;;17.75;16.05;;;;;;;16.72;59.72;99758.13;5062755;28;20037;-71
2021/04/28 10:47:44;;;;;;;16.95;14.68;;;;;;;16.85;59.31;99757.94;5057651;28;20510;-75
2021/04/28 10:50:39;;;;;;;15.93;13.63;;;;;;;16.91;57.51;99751.31;5061159;28;20098;-73
2021/04/28 10:53:26;;;;;;;15.77;14.40;;;;;;;16.80;58.77;99754.00;5060872;28;20134;-72
2021/04/28 10:55:55;;;;;;;18.40;14.20;;;;;;;16.96;58.80;99739.41;5059378;28;20550;-73
2021/04/28 10:58:28;;;;;;;22.08;13.45;;;;;;;17.20;58.84;99744.38;5062153;28;20127;-75
2021/04/28 11:00:58;;;;;;;15.17;13.83;;;;;;;17.28;57.14;99744.59;5059407;28;20053;-72
2021/04/28 11:03:49;;;;;;;13.85;12.55;;;;;;;17.12;57.25;99749.50;5060337;28;20068;-76
2021/04/28 11:09:30;;;;;;;14.43;12.35;;;;;;;17.16;58.09;99735.09;5065871;28;20045;-75
2021/04/28 11:12:47;;;;;;;14.70;13.30;;;;;;;17.23;58.16;99735.41;5038133;28;20056;-75
2021/04/28 11:15:52;;;;;;;14.82;11.60;;;;;;;17.03;58.01;99734.47;5063271;28;20064;-73
2021/04/28 11:18:35;;;;;;;12.20;11.00;;;;;;;17.18;57.19;99732.34;5066625;28;20078;-73
2021/04/28 11:21:24;;;;;;;11.63;10.52;;;;;;;17.14;56.40;99734.38;5061961;28;20041;-74
2021/04/28 11:24:17;;;;;;;13.27;11.60;;;;;;;17.24;56.67;99732.63;5067494;28;20052;-73
2021/04/28 11:26:51;;;;;;;11.40;10.30;;;;;;;17.23;56.92;99730.97;5058481;28;20055;-72
2021/04/28 11:29:21;;;;;;;10.90;9.77;;;;;;;17.34;57.09;99737.94;5063208;28;20060;-72
2021/04/28 11:31:50;;;;;;;12.95;10.02;;;;;;;17.21;56.10;99732.09;5065959;28;20565;-71
2021/04/28 11:34:26;;;;;;;13.15;11.80;;;;;;;17.13;56.32;99735.34;5060986;28;20236;-72
2021/04/28 11:37:04;;;;;;;11.52;10.43;;;;;;;17.27;56.13;99737.66;5063945;28;20124;-71
2021/04/28 11:39:45;;;;;;;13.68;10.48;;;;;;;17.42;56.23;99739.94;5068212;28;20057;-73